• Join FlightAware (Why Join?)
  • Login
  • US Flag 
 
04:10AM EST


 

Airport Tracker/Info


-or-


 

Live Flight TrackerFlight Track Log ✈ AVN11 ✈ 11-Jan-2014 ✈ YSSY / SYD - NVVV / VLI

Flight Track Log - Related Links

Times and Time Zones

All times are in EST time to prevent confusion due to time zone crossing. See the AVN11 flight status page for this flight to view local times or setup timezone preferences in your user account.

Time Position Orientation Groundspeed Altitude Reporting Facility
EST Latitude Longitude Course Direction KTS MPH feet Rate Location/Type
04:08AM -33.9616 151.1914 357° North 125 144  Level FlightAware ADS-B (YRPA)
04:08AM -33.9476 151.1877 347° North 148 170 400 1,740 Climbing FlightAware ADS-B (YRPA)
04:08AM -33.9364 151.1863 354° North 147 169 1,100 1,980 Climbing FlightAware ADS-B (YWST)
04:09AM -33.9385 151.1861 185° South 149 171 1,200 840 Climbing FlightAware ADS-B
04:09AM -33.9239 151.1947 26° Northeast 165 190 1,400 900 Climbing FlightAware ADS-B (YRAY)
04:09AM -33.9104 151.2072 38° Northeast 188 216 1,700 1,080 Climbing FlightAware ADS-B (YRAY)
04:09AM -33.9049 151.2122 37° Northeast 190 219 1,900 2,160 Climbing FlightAware ADS-B (YRAY)
04:09AM -33.8949 151.2209 36° Northeast 212 244 2,100 1,140 Climbing FlightAware ADS-B (YPLB)
04:10AM -33.8849 151.2296 36° Northeast 224 258 2,400 1,560 Climbing FlightAware ADS-B (YWST)
04:10AM -33.8711 151.2421 37° Northeast 227 261 3,100 2,160 Climbing FlightAware ADS-B
04:10AM -33.8630 151.2493 37° Northeast 227 261 3,300 1,080 Climbing FlightAware ADS-B (YRAY)
04:10AM -33.8578 151.2540 36° Northeast 240 276 3,400 1,200 Climbing FlightAware ADS-B (YRPA)
04:10AM -33.8500 151.2607 36° Northeast 240 276 3,600 1,380 Climbing FlightAware ADS-B (YRAY)
04:10AM -33.8411 151.2683 35° Northeast 260 299 3,800 1,020 Climbing FlightAware ADS-B
04:11AM -33.8292 151.2823 44° Northeast 271 312 4,000 960 Climbing FlightAware ADS-B (YRAY)
04:11AM -33.8228 151.2967 62° Northeast 278 320 4,200 1,020 Climbing FlightAware ADS-B (YRPA)
04:11AM -33.8148 151.3261 72° East 299 344 4,500 900 Climbing FlightAware ADS-B (YRPA)
04:12AM -33.8041 151.3588 69° East 325 374 4,800 1,020 Climbing FlightAware ADS-B (YRPA)
04:12AM -33.8015 151.3631 55° Northeast 328 377 4,900 2,160 Climbing FlightAware ADS-B (YRAY)
04:12AM -33.7930 151.3737 46° Northeast 335 386 5,200 1,980 Climbing FlightAware ADS-B (YWST)
04:12AM -33.7803 151.3838 33° Northeast 335 386 5,500 1,800 Climbing FlightAware ADS-B (YRPA)
04:12AM -33.7654 151.3905 21° North 345 397 5,800 2,100 Climbing FlightAware ADS-B (YWST)
04:12AM -33.7287 151.4046 18° North 350 403 6,700 2,340 Climbing FlightAware ADS-B (YRAY)
04:13AM -33.7113 151.4116 19° North 352 405 7,400 2,460 Climbing FlightAware ADS-B (YRAY)
04:13AM -33.6805 151.4243 19° North 360 414 8,300 2,280 Climbing FlightAware ADS-B (YRAY)
04:14AM -33.6243 151.4476 19° North 363 418 9,300 2,160 Climbing FlightAware ADS-B (YRPA)
04:14AM -33.5913 151.4612 19° North 372 428 10,000 2,520 Climbing FlightAware ADS-B (YRPA)
04:14AM -33.5365 151.4834 19° North 385 443 11,600 2,760 Climbing FlightAware ADS-B (YWST)
04:15AM -33.4810 151.5062 19° North 391 450 13,200 2,820 Climbing FlightAware ADS-B
04:16AM -33.4188 151.5317 19° North 389 448 14,800 3,000 Climbing FlightAware ADS-B (YRPA)
04:16AM -33.3496 151.5602 19° North 389 448 16,800 2,760 Climbing FlightAware ADS-B (YRPA)
04:17AM -33.2946 151.5829 19° North 400 460 18,100 2,460 Climbing Aus ATC (RADAR)
04:17AM -33.2983 151.5811 19° North 407 468 18,200 2,040 Climbing FlightAware ADS-B
04:18AM -33.2035 151.6199 19° North 426 490 19,800 1,980 Climbing FlightAware ADS-B (YRPA)
04:18AM -33.1251 151.6519 19° North 438 504 21,200 2,400 Climbing FlightAware ADS-B (YRPA)
04:19AM -33.0637 151.6767 19° North 443 510 22,300 2,700 Climbing FlightAware ADS-B (YPLB)
04:19AM -33.0269 151.6915 19° North 447 514 23,000 1,680 Climbing FlightAware ADS-B (YPLB)
04:20AM -32.9757 151.7130 19° North 446 513 23,900 1,380 Climbing Aus ATC (RADAR)
04:20AM -32.9726 151.7150 19° North 445 512 23,900 1,500 Level FlightAware ADS-B (YRPA)
04:20AM -32.9326 151.7444 32° Northeast 448 516 24,500 1,500 Climbing FlightAware ADS-B (YRPA)
04:21AM -32.8823 151.8017 32° Northeast 455 524 25,300 1,500 Climbing Aus ATC (RADAR)
04:21AM -32.8708 151.8164 32° Northeast 465 535 25,500 1,620 Climbing FlightAware ADS-B (YRPA)
04:21AM -32.8225 151.8756 32° Northeast 460 529 26,400 1,680 Climbing Aus ATC (RADAR)
04:21AM -32.8116 151.8881 32° Northeast 465 535 26,600 2,400 Climbing FlightAware ADS-B (YRPA)
04:22AM -32.7663 151.9427 45° Northeast 471 542 27,500 1,860 Climbing FlightAware ADS-B (YPLB)
04:22AM -32.7330 151.9829 45° Northeast 467 537 28,200 1,320 Climbing Aus ATC (RADAR)
04:22AM -32.7207 151.9975 45° Northeast 466 536 28,400 1,380 Climbing FlightAware ADS-B (YRPA)
04:23AM -32.6558 152.0755 45° Northeast 470 541 29,400 1,380 Climbing FlightAware ADS-B (YRPA)
04:24AM -32.5942 152.1493 45° Northeast 481 554 30,300 1,440 Climbing FlightAware ADS-B (YRPA)
04:24AM -32.5320 152.2235 45° Northeast 482 555 31,300 1,500 Climbing FlightAware ADS-B (YRPA)
04:25AM -32.4700 152.2973 45° Northeast 478 550 32,300 1,560 Climbing FlightAware ADS-B (YRPA)
04:26AM -32.4102 152.3683 45° Northeast 468 539 33,400 1,860 Climbing FlightAware ADS-B (YRPA)
04:26AM -32.3602 152.4278 45° Northeast 468 539 34,200 1,800 Climbing FlightAware ADS-B (YPLB)
04:26AM -32.3298 152.4638 45° Northeast 468 539 34,700 780 Climbing FlightAware ADS-B (YPLB)
04:26AM -32.3321 152.4611 45° Northeast 461 531 34,600 960 Descending FlightAware ADS-B (YRPA)
04:27AM -32.2902 152.5108 45° Northeast 459 528 35,300 1,740 Climbing Aus ATC (RADAR)
04:27AM -32.2675 152.5374 45° Northeast 466 536 35,500 1,200 Climbing FlightAware ADS-B (YPLB)
04:28AM -32.2296 152.5831 45° Northeast 457 526 36,100 780 Climbing Aus ATC (RADAR)
04:28AM -32.2283 152.5837 45° Northeast 459 528 36,000 660 Descending FlightAware ADS-B (YRPA)
04:28AM -32.2161 152.5981 45° Northeast 463 533 36,200 1,260 Climbing FlightAware ADS-B (YRPA)
04:28AM -32.1791 152.6427 45° Northeast 464 534 36,700 1,320 Climbing Aus ATC (RADAR)
04:28AM -32.1473 152.6808 46° Northeast 463 533 37,000 300 Climbing FlightAware ADS-B (YPLB)
04:29AM -32.0961 152.7417 45° Northeast 460 529 37,000  Level FlightAware ADS-B (YRPA)
04:30AM -32.0357 152.8123 45° Northeast 460 529 37,000  Level FlightAware ADS-B (YRPA)
04:30AM -31.9980 152.8563 45° Northeast 465 535 37,000 120 Level FlightAware ADS-B (YPLB)
04:30AM -31.9667 152.8935 45° Northeast 467 537 37,100  Climbing Aus ATC (RADAR)
04:31AM -31.9442 152.9189 45° Northeast 460 529 37,000 -300 Descending FlightAware ADS-B (YRPA)
04:31AM -31.9329 152.9323 45° Northeast 460 529 37,000  Level FlightAware ADS-B (YRPA)
04:32AM -31.8449 153.0348 45° Northeast 465 535 37,000 120 Level FlightAware ADS-B (YPLB)
04:32AM -31.8574 153.0208 45° Northeast 454 522 37,100 120 Climbing Aus ATC (RADAR)
04:32AM -31.8065 153.0804 45° Northeast 466 536 37,100 -180 Level Aus ATC (RADAR)
04:32AM -31.7957 153.0923 45° Northeast 459 528 37,000  Descending FlightAware ADS-B (YRPA)
04:33AM -31.7358 153.1632 45° Northeast 452 520 37,100  Climbing Aus ATC (RADAR)
04:33AM -31.7204 153.1806 45° Northeast 463 533 37,000  Descending FlightAware ADS-B (YPLB)
04:34AM -31.6754 153.2336 45° Northeast 449 517 37,100  Climbing Aus ATC (RADAR)
04:34AM -31.6609 153.2500 45° Northeast 463 533 37,000  Descending FlightAware ADS-B (YPLB)
04:34AM -31.6299 153.2866 45° Northeast 450 518 37,100  Climbing Aus ATC (RADAR)
04:34AM -31.5981 153.3226 45° Northeast 463 533 37,000 -180 Descending FlightAware ADS-B (YPLB)
04:35AM -31.5412 153.3880 44° Northeast 463 533 37,000  Level FlightAware ADS-B (YPLB)
04:36AM -31.4801 153.4581 44° Northeast 463 533 37,000 60 Level FlightAware ADS-B (YPLB)
04:36AM -31.4340 153.5119 44° Northeast 464 534 37,100  Climbing Aus ATC (RADAR)
04:36AM -31.4172 153.5306 44° Northeast 463 533 37,000 -180 Descending FlightAware ADS-B (YPLB)
04:37AM -31.3530 153.6045 45° Northeast 464 534 37,000  Level FlightAware ADS-B (YPLB)
04:38AM -31.3493 153.6087 44° Northeast 464 534 37,000  Level FlightAware ADS-B (YPLB)
04:38AM -31.2304 153.7454 45° Northeast 464 534 37,000 60 Level FlightAware ADS-B (YPLB)
04:39AM -31.1942 153.7873 45° Northeast 452 520 37,100  Climbing Aus ATC (RADAR)
04:39AM -31.1706 153.8138 45° Northeast 466 536 37,000 -180 Descending FlightAware ADS-B (YPLB)
04:40AM -31.1127 153.8798 44° Northeast 468 539 37,000 60 Level FlightAware ADS-B (YPLB)
04:40AM -31.0814 153.9160 44° Northeast 470 541 37,100  Climbing Aus ATC (RADAR)
04:41AM -31.0577 153.9423 44° Northeast 470 541 37,000  Descending FlightAware ADS-B (YPLB)
04:41AM -31.0194 153.9864 44° Northeast 470 541 37,100 60 Climbing Aus ATC (RADAR)
04:41AM -30.9569 154.0572 44° Northeast 472 543 37,100  Level Aus ATC (RADAR)
04:42AM -30.8850 154.1395 44° Northeast 452 520 37,100  Level Aus ATC (RADAR)
04:44AM -30.7309 154.3121 44° Northeast 469 540 37,100  Level Aus ATC (RADAR)
04:44AM -30.6894 154.3593 44° Northeast 456 525 37,100  Level Aus ATC (RADAR)
04:45AM -30.6450 154.4090 44° Northeast 471 542 37,100  Level Aus ATC (RADAR)
04:45AM -30.5827 154.4794 44° Northeast 471 542 37,100  Level Aus ATC (RADAR)
04:46AM -30.5267 154.5439 45° Northeast 453 521 37,100  Level Aus ATC (RADAR)
04:47AM -30.4654 154.6104 43° Northeast 470 541 37,100  Level Aus ATC (RADAR)
04:47AM -30.3928 154.6921 44° Northeast 455 524 37,100  Level Aus ATC (RADAR)
04:48AM -30.3403 154.7499 44° Northeast 468 539 37,100  Level Aus ATC (RADAR)
04:49AM -30.2902 154.8049 43° Northeast 455 524 37,100  Level Aus ATC (RADAR)
04:49AM -30.2283 154.8745 44° Northeast 452 520 37,100  Level Aus ATC (RADAR)
04:50AM -30.1733 154.9351 44° Northeast 451 519 37,100  Level Aus ATC (RADAR)
04:51AM -30.1061 155.0101 44° Northeast 468 539 37,100  Level Aus ATC (RADAR)
04:51AM -30.0713 155.0477 43° Northeast 451 519 37,100  Level Aus ATC (RADAR)
04:51AM -30.0173 155.1078 44° Northeast 450 518 37,100  Level Aus ATC (RADAR)
04:52AM -29.9535 155.1770 43° Northeast 455 524 37,100  Level Aus ATC (RADAR)
04:53AM -29.8747 155.2641 44° Northeast 454 522 37,100  Level Aus ATC (RADAR)
04:54AM -29.7882 155.3600 44° Northeast 455 524 37,100  Level Aus ATC (RADAR)
04:55AM -29.7272 155.4264 43° Northeast 473 544 37,100  Level Aus ATC (RADAR)
04:56AM -29.6238 155.5394 44° Northeast 474 545 37,100  Level Aus ATC (RADAR)
04:56AM -29.5760 155.5913 43° Northeast 472 543 37,100  Level Aus ATC (RADAR)
04:58AM -29.3914 155.7917 43° Northeast 478 550 37,100  Level Aus ATC (RADAR)
04:59AM -29.2955 155.8957 43° Northeast 476 548 37,100  Level Aus ATC (RADAR)
05:00AM -29.2388 155.9566 43° Northeast 478 550 37,100  Level Aus ATC (RADAR)
05:00AM -29.2063 155.9915 43° Northeast 480 552 37,100  Level Aus ATC (RADAR)
05:01AM -29.1409 156.0615 43° Northeast 480 552 37,100  Level Aus ATC (RADAR)
05:01AM -29.0767 156.1307 43° Northeast 477 549 37,100  Level Aus ATC (RADAR)
05:02AM -29.0117 156.2005 43° Northeast 480 552 37,100  Level Aus ATC (RADAR)
05:03AM -28.9139 156.3049 43° Northeast 481 554 37,100  Level Aus ATC (RADAR)
05:03AM -28.8808 156.3400 43° Northeast 483 556 37,100  Level Aus ATC (RADAR)
05:04AM -28.8151 156.4099 43° Northeast 483 556 37,100  Level Aus ATC (RADAR)
05:05AM -28.7580 156.4709 43° Northeast 482 555 37,100  Level Aus ATC (RADAR)
05:06AM -28.6510 156.5848 43° Northeast 485 558 37,100  Level Aus ATC (RADAR)
05:06AM -28.5676 156.6718 42° Northeast 485 558 37,100  Level Aus ATC (RADAR)
05:07AM -28.5012 156.7416 43° Northeast 486 559 37,100 -60 Level Aus ATC (RADAR)
05:08AM -28.4026 156.8456 43° Northeast 483 556 37,000 -120 Descending Aus ATC (RADAR)
05:09AM -28.3532 156.8976 43° Northeast 485 558 37,000  Level Aus ATC (RADAR)
05:10AM -28.2296 157.0271 43° Northeast 482 555 37,000  Level Aus ATC (RADAR)
05:10AM -28.1848 157.0705 41° Northeast 492 566 37,000  Level Aus ATC (RADAR)
05:11AM -28.1368 157.1226 44° Northeast 487 560 37,000  Level Aus ATC (RADAR)
05:11AM -28.0899 157.1737 44° Northeast 475 547 37,000  Level Aus ATC (RADAR)
05:12AM -28.0270 157.2407 43° Northeast 467 537 37,000  Level Aus ATC (RADAR)
05:13AM -27.9541 157.3159 42° Northeast 469 540 37,000  Level Aus ATC (RADAR)
05:14AM -27.8576 157.4174 43° Northeast 473 544 37,000  Level Aus ATC (RADAR)
05:14AM -27.7831 157.4950 43° Northeast 480 552 37,000  Level Aus ATC (RADAR)
05:15AM -27.7165 157.5642 43° Northeast 485 558 37,000  Level Aus ATC (RADAR)
05:16AM -27.6319 157.6503 42° Northeast 488 562 37,000  Level Aus ATC (RADAR)
05:17AM -27.5567 157.7280 42° Northeast 487 560 37,000  Level Aus ATC (RADAR)
05:17AM -27.4977 157.7885 42° Northeast 489 563 37,000  Level Aus ATC (RADAR)
05:20AM -27.1824 158.1146 43° Northeast 482 555 37,000  Level Aus ATC (RADAR)
05:21AM -27.1330 158.1663 43° Northeast 482 555 37,000  Level Aus ATC (RADAR)
05:22AM -27.0671 158.2342 43° Northeast 483 556 37,000  Level Aus ATC (RADAR)
05:24AM -26.8480 158.4287 38° Northeast 37,000  Level Aus ATC (Calculated)
05:24AM -26.8058 158.4660 38° Northeast 37,000  Level Aus ATC (Calculated)
05:25AM -26.7222 158.5399 47° Northeast 37,000  Level Aus ATC (Calculated)
05:27AM -26.5663 158.7271 47° Northeast  Level Estimated
05:27AM -26.4750 158.7576 47° Northeast 37,000  Level Aus ATC (Calculated)
05:29AM -26.3448 158.9142 47° Northeast  Level Estimated
05:29AM -26.2390 158.9642 47° Northeast 37,000  Level Aus ATC (Calculated)
05:31AM -26.1033 159.1279 47° Northeast  Level Estimated
05:32AM -26.0146 159.2344 47° Northeast  Level Estimated
05:33AM -25.9259 159.3408 47° Northeast  Level Estimated
05:34AM -25.8372 159.4471 47° Northeast  Level Estimated
05:35AM -25.7483 159.5531 47° Northeast  Level Estimated
05:35AM -25.6379 159.4856 48° Northeast 37,000  Level Aus ATC (Calculated)
05:37AM -25.4635 159.6975 48° Northeast  Level Estimated
05:38AM -25.3755 159.8041 48° Northeast  Level Estimated
05:39AM -25.2874 159.9105 48° Northeast  Level Estimated
05:40AM -25.1992 160.0168 47° Northeast  Level Estimated
05:41AM -25.1110 160.1229 47° Northeast  Level Estimated
05:42AM -25.0227 160.2289 47° Northeast  Level Estimated
05:43AM -24.9343 160.3347 47° Northeast  Level Estimated
05:44AM -24.8458 160.4404 47° Northeast  Level Estimated
05:45AM -24.7572 160.5459 47° Northeast  Level Estimated
05:46AM -24.6686 160.6513 47° Northeast  Level Estimated
05:47AM -24.5799 160.7565 47° Northeast  Level Estimated
05:48AM -24.4912 160.8616 47° Northeast  Level Estimated
05:49AM -24.4023 160.9666 47° Northeast  Level Estimated
05:50AM -24.3134 161.0713 47° Northeast  Level Estimated
05:51AM -24.2244 161.1760 47° Northeast  Level Estimated
05:52AM -24.1354 161.2805 47° Northeast  Level Estimated
05:53AM -24.0462 161.3848 47° Northeast  Level Estimated
05:54AM -23.9571 161.4890 47° Northeast  Level Estimated
05:55AM -23.8678 161.5930 47° Northeast  Level Estimated
05:56AM -23.7784 161.6969 47° Northeast  Level Estimated
05:57AM -23.6890 161.8007 47° Northeast  Level Estimated
05:58AM -23.5996 161.9043 47° Northeast  Level Estimated
05:59AM -23.5100 162.0078 47° Northeast  Level Estimated
06:00AM -23.4204 162.1112 47° Northeast  Level Estimated
06:00AM -22.8447 161.8237 51° Northeast 37,000  Level Aus ATC (Calculated)
06:02AM -22.6817 162.0416 51° Northeast  Level Estimated
06:03AM -22.5994 162.1513 51° Northeast  Level Estimated
06:04AM -22.5171 162.2608 51° Northeast  Level Estimated
06:05AM -22.4346 162.3702 51° Northeast  Level Estimated
06:06AM -22.3521 162.4795 51° Northeast  Level Estimated
06:07AM -22.2695 162.5886 51° Northeast  Level Estimated
06:08AM -22.1868 162.6976 51° Northeast  Level Estimated
06:09AM -22.1041 162.8065 51° Northeast  Level Estimated
06:10AM -22.0213 162.9153 51° Northeast  Level Estimated
06:10AM -21.7015 162.7447 54° Northeast 37,000  Level Aus ATC (Calculated)
06:11AM -21.6242 162.8578 54° Northeast  Level Estimated
06:12AM -21.5467 162.9706 54° Northeast  Level Estimated
06:13AM -21.4692 163.0834 54° Northeast  Level Estimated
06:14AM -21.3916 163.1961 54° Northeast  Level Estimated
06:15AM -21.3139 163.3086 53° Northeast  Level Estimated
06:16AM -21.2362 163.4210 53° Northeast  Level Estimated
06:17AM -21.1583 163.5333 53° Northeast  Level Estimated
06:18AM -21.0805 163.6455 53° Northeast  Level Estimated
06:19AM -21.0025 163.7575 53° Northeast  Level Estimated
06:20AM -20.9244 163.8694 53° Northeast  Level Estimated
06:21AM -20.8463 163.9813 53° Northeast  Level Estimated
06:22AM -20.7681 164.0930 53° Northeast  Level Estimated
06:23AM -20.6899 164.2046 53° Northeast  Level Estimated
06:24AM -20.6115 164.3160 53° Northeast  Level Estimated
06:25AM -20.5331 164.4274 53° Northeast  Level Estimated
06:26AM -20.4547 164.5386 53° Northeast  Level Estimated
06:27AM -20.3761 164.6498 53° Northeast  Level Estimated
06:28AM -20.2975 164.7608 53° Northeast  Level Estimated
06:29AM -20.2188 164.8717 53° Northeast  Level Estimated
06:30AM -20.1400 164.9825 53° Northeast  Level Estimated
06:31AM -20.0612 165.0932 53° Northeast  Level Estimated
06:32AM -19.9823 165.2037 53° Northeast  Level Estimated
06:33AM -19.9034 165.3142 53° Northeast  Level Estimated
06:34AM -19.8243 165.4245 53° Northeast  Level Estimated
06:35AM -19.7452 165.5348 53° Northeast  Level Estimated
06:36AM -19.6661 165.6449 53° Northeast  Level Estimated
06:37AM -19.5868 165.7549 53° Northeast  Level Estimated
06:38AM -19.5075 165.8648 53° Northeast  Level Estimated
06:39AM -19.4282 165.9746 53° Northeast  Level Estimated
06:40AM -19.3487 166.0843 53° Northeast  Level Estimated
06:41AM -19.2693 166.1939 52° Northeast  Level Estimated
06:42AM -19.1897 166.3034 52° Northeast  Level Estimated
06:43AM -19.1101 166.4128 52° Northeast  Level Estimated
06:44AM -19.0304 166.5220 52° Northeast  Level Estimated
06:45AM -18.9506 166.6312 52° Northeast  Level Estimated
06:46AM -18.8708 166.7403 52° Northeast  Level Estimated
06:47AM -18.7909 166.8492 52° Northeast  Level Estimated
06:48AM -18.7110 166.9581 52° Northeast  Level Estimated
06:49AM -18.6310 167.0668 52° Northeast  Level Estimated
06:50AM -18.5509 167.1755 52° Northeast  Level Estimated
06:51AM -18.4708 167.2841 52° Northeast  Level Estimated
06:52AM -18.3906 167.3925 52° Northeast  Level Estimated
06:53AM -18.3103 167.5009 52° Northeast  Level Estimated
06:54AM -18.2300 167.6091 52° Northeast  Level Estimated
06:55AM -18.1496 167.7173 52° Northeast  Level Estimated
06:56AM -18.0692 167.8253 52° Northeast  Level Estimated
06:57AM -17.9887 167.9332 52° Northeast  Level Estimated
06:58AM -17.9081 168.0411 52° Northeast  Level Estimated
06:59AM -17.8275 168.1488 52° Northeast  Level Estimated
07:00AM -17.7468 168.2565 52° Northeast  Level Estimated
07:01AM -17.6993 168.3198 52° Northeast  Level Estimated
07:02AM -17.6993 168.3198 143° Southeast  Level Estimated
07:03AM -17.6993 168.3198 37° Northeast  Level Estimated
07:04AM -17.6993 168.3198 143° Southeast  Level Estimated
07:05AM -17.6993 168.3198 37° Northeast  Level Estimated
07:06AM -17.6993 168.3198 143° Southeast  Level Estimated
07:07AM -17.6993 168.3198 37° Northeast  Level Estimated
07:08AM -17.6993 168.3198 143° Southeast  Level Estimated
07:09AM -17.6993 168.3198 37° Northeast  Level Estimated
07:10AM -17.6993 168.3198 143° Southeast  Level Estimated
07:11AM -17.6993 168.3198 37° Northeast  Level Estimated
07:12AM -17.6993 168.3198 143° Southeast  Level Estimated
07:13AM -17.6993 168.3198 37° Northeast  Level Estimated
07:14AM -17.6993 168.3198 143° Southeast  Level Estimated
07:15AM -17.6993 168.3198 37° Northeast  Level Estimated
07:16AM -17.6993 168.3198 143° Southeast  Level Estimated
07:17AM -17.6993 168.3198 37° Northeast  Level Estimated
07:18AM -17.6993 168.3198 143° Southeast  Level Estimated
07:19AM -17.6993 168.3198 37° Northeast  Level Estimated
07:20AM -17.6993 168.3198 143° Southeast  Level Estimated